| time (UTC) | temp C | wind direction | speed KPH | gust KPH | rain 1hr cm | rain 24hr cm | rain mn cm | humidity % | barometer mb |
| 20260507095615 | 10 | 0.0 | 3.2 | 0.03 | 0.66 | 0.64 | 96 | 1012.2 | |
| 20260507094611 | 11 | 0.0 | 0.0 | 0.00 | 0.64 | 0.61 | 96 | 1012.0 | |
| 20260507093607 | 11 | 0.0 | 3.2 | 0.00 | 0.64 | 0.61 | 96 | 1012.0 | |
| 20260507092604 | 11 | 90 | 0.0 | 3.2 | 0.03 | 0.64 | 0.61 | 95 | 1011.9 |
| 20260507091600 | 11 | 0.0 | 0.0 | 0.03 | 0.64 | 0.61 | 97 | 1011.8 | |
| 20260507090556 | 10 | 0.0 | 0.0 | 0.03 | 0.64 | 0.61 | 97 | 1011.7 | |
| 20260507085552 | 10 | 0.0 | 3.2 | 0.03 | 0.64 | 0.61 | 97 | 1011.5 | |
| 20260507084549 | 10 | 0.0 | 0.0 | 0.03 | 0.64 | 0.61 | 97 | 1011.4 | |
| 20260507083545 | 10 | 0.0 | 3.2 | 0.05 | 0.64 | 0.61 | 97 | 1011.3 | |
| 20260507082541 | 10 | 135 | 0.0 | 3.2 | 0.03 | 0.61 | 0.56 | 97 | 1011.1 |
| 20260507081538 | 10 | 0.0 | 0.0 | 0.03 | 0.61 | 0.56 | 97 | 1011.0 | |
| 20260507080533 | 10 | 0.0 | 3.2 | 0.03 | 0.61 | 0.56 | 97 | 1010.9 | |
| 20260507075529 | 10 | 0.0 | 0.0 | 0.03 | 0.61 | 0.56 | 97 | 1010.9 | |
| 20260507074525 | 10 | 0.0 | 3.2 | 0.03 | 0.61 | 0.56 | 97 | 1010.8 | |
| 20260507073521 | 10 | 0.0 | 0.0 | 0.00 | 0.56 | 0.53 | 97 | 1010.7 | |
| 20260507072517 | 10 | 0.0 | 0.0 | 0.00 | 0.56 | 0.53 | 96 | 1010.5 | |
| 20260507071613 | 10 | 0.0 | 0.0 | 0.00 | 0.56 | 0.53 | 97 | 1010.4 | |
| 20260507070609 | 11 | 0.0 | 0.0 | 0.03 | 0.56 | 0.53 | 98 | 1010.2 | |
| 20260507065606 | 10 | 0.0 | 3.2 | 0.03 | 0.56 | 0.53 | 98 | 1010.2 | |
| 20260507064602 | 10 | 0.0 | 0.0 | 0.03 | 0.56 | 0.53 | 98 | 1010.1 | |
| 20260507063558 | 10 | 0.0 | 3.2 | 0.03 | 0.56 | 0.53 | 98 | 1010.1 | |
| 20260507062554 | 10 | 0.0 | 3.2 | 0.05 | 0.56 | 0.53 | 99 | 1010.0 | |
| 20260507061550 | 10 | 0.0 | 3.2 | 0.05 | 0.56 | 0.53 | 99 | 1009.8 | |
| 20260507060547 | 10 | 0.0 | 3.2 | 0.05 | 0.56 | 0.51 | 99 | 1009.7 | |
| 20260507055543 | 10 | 0.0 | 3.2 | 0.10 | 0.56 | 0.51 | 99 | 1009.6 | |
| 20260507054538 | 10 | 0.0 | 3.2 | 0.13 | 0.56 | 0.51 | 99 | 1009.4 | |
| 20260507053535 | 10 | 0.0 | 3.2 | 0.18 | 0.56 | 0.51 | 99 | 1009.3 | |
| 20260507052531 | 10 | 68 | 0.0 | 3.2 | 0.15 | 0.53 | 0.48 | 99 | 1009.3 |
| 20260507051528 | 10 | 0.0 | 3.2 | 0.18 | 0.53 | 0.48 | 99 | 1009.2 | |
| 20260507050523 | 10 | 0.0 | 3.2 | 0.15 | 0.51 | 0.46 | 99 | 1009.1 | |
| 20260507045520 | 10 | 0.0 | 3.2 | 0.13 | 0.48 | 0.43 | 98 | 1009.0 | |
| 20260507043612 | 10 | 0.0 | 3.2 | 0.03 | 0.38 | 0.33 | 98 | 1008.8 | |
| 20260507042609 | 10 | 0.0 | 3.2 | 0.03 | 0.38 | 0.33 | 98 | 1008.7 | |
| 20260507041606 | 10 | 90 | 0.0 | 3.2 | 0.00 | 0.36 | 0.30 | 98 | 1008.6 |
| 20260507040602 | 10 | 68 | 0.0 | 3.2 | 0.00 | 0.36 | 0.30 | 98 | 1008.5 |
| 20260507035559 | 10 | 79 | 0.0 | 3.2 | 0.00 | 0.36 | 0.30 | 98 | 1008.5 |
| 20260507034555 | 10 | 75 | 1.6 | 3.2 | 0.00 | 0.36 | 0.30 | 98 | 1008.4 |
| 20260507033551 | 10 | 90 | 0.0 | 3.2 | 0.00 | 0.36 | 0.30 | 98 | 1008.3 |
| 20260507032547 | 10 | 68 | 0.0 | 3.2 | 0.03 | 0.36 | 0.30 | 98 | 1008.2 |
| 20260507031544 | 10 | 101 | 0.0 | 6.4 | 0.03 | 0.36 | 0.30 | 98 | 1008.2 |
| 20260507030540 | 10 | 0.0 | 3.2 | 0.05 | 0.36 | 0.30 | 98 | 1008.1 | |
| 20260507025537 | 10 | 0.0 | 3.2 | 0.10 | 0.36 | 0.30 | 98 | 1008.1 | |
| 20260507024533 | 11 | 90 | 0.0 | 3.2 | 0.10 | 0.36 | 0.30 | 98 | 1008.1 |
| 20260507023529 | 10 | 0.0 | 0.0 | 0.10 | 0.36 | 0.30 | 98 | 1008.0 | |
| 20260507022525 | 10 | 0.0 | 3.2 | 0.05 | 0.33 | 0.28 | 97 | 1008.1 | |
| 20260507021522 | 11 | 84 | 0.0 | 3.2 | 0.10 | 0.33 | 0.28 | 97 | 1008.0 |
| 20260507020518 | 11 | 79 | 0.0 | 3.2 | 0.05 | 0.30 | 0.23 | 97 | 1008.0 |
| 20260507015615 | 11 | 0.0 | 3.2 | 0.03 | 0.28 | 0.20 | 97 | 1007.9 | |
| 20260507014612 | 11 | 90 | 0.0 | 3.2 | 0.03 | 0.28 | 0.20 | 97 | 1007.8 |
| 20260507013607 | 11 | 68 | 0.0 | 3.2 | 0.03 | 0.28 | 0.20 | 97 | 1007.9 |
| 20260507012618 | 11 | 90 | 0.0 | 3.2 | 0.03 | 0.28 | 0.20 | 97 | 1007.8 |
| 20260507011600 | 11 | 90 | 0.0 | 3.2 | 0.03 | 0.23 | 0.18 | 97 | 1007.7 |
| 20260507010557 | 11 | 45 | 0.0 | 3.2 | 0.03 | 0.23 | 0.18 | 97 | 1007.7 |
| 20260507005554 | 11 | 45 | 0.0 | 3.2 | 0.05 | 0.23 | 0.18 | 97 | 1007.8 |
| 20260507004550 | 12 | 0.0 | 0.0 | 0.13 | 0.23 | 0.18 | 97 | 1007.7 | |
| 20260507003546 | 12 | 0.0 | 0.0 | 0.15 | 0.23 | 0.18 | 97 | 1007.8 | |
| 20260507002543 | 12 | 0.0 | 3.2 | 0.15 | 0.23 | 0.18 | 96 | 1007.7 | |
| 20260507001539 | 12 | 0.0 | 3.2 | 0.13 | 0.20 | 0.15 | 96 | 1007.6 | |
| 20260507000536 | 12 | 0.0 | 0.0 | 0.13 | 0.20 | 0.15 | 96 | 1007.7 | |
| 20260506235532 | 12 | 0.0 | 3.2 | 0.10 | 0.18 | 0.13 | 96 | 1007.7 | |
| 20260506234528 | 12 | 0.0 | 0.0 | 0.03 | 0.13 | 0.05 | 96 | 1007.6 | |
| 20260506233525 | 12 | 0.0 | 0.0 | 0.00 | 0.10 | 0.03 | 96 | 1007.5 | |
| 20260506232521 | 12 | 0.0 | 0.0 | 0.03 | 0.10 | 0.03 | 96 | 1007.5 | |
| 20260506231517 | 12 | 0.0 | 0.0 | 0.03 | 0.10 | 0.03 | 96 | 1007.6 | |
| 20260506230613 | 12 | 0.0 | 3.2 | 0.03 | 0.10 | 0.03 | 96 | 1007.5 | |
| 20260506225610 | 12 | 0.0 | 0.0 | 0.03 | 0.10 | 0.03 | 96 | 1007.5 | |
| 20260506224606 | 12 | 68 | 0.0 | 3.2 | 0.03 | 0.10 | 0.03 | 95 | 1007.4 |
| 20260506223603 | 12 | 0.0 | 3.2 | 0.03 | 0.10 | 0.03 | 95 | 1007.3 | |
| 20260506222600 | 12 | 0.0 | 3.2 | 0.00 | 0.05 | 0.00 | 95 | 1007.2 | |
| 20260506221556 | 12 | 113 | 0.0 | 6.4 | 0.00 | 0.05 | 0.00 | 95 | 1007.3 |
| 20260506220552 | 12 | 90 | 0.0 | 6.4 | 0.00 | 0.05 | 0.00 | 94 | 1007.2 |
| 20260506215549 | 12 | 113 | 0.0 | 3.2 | 0.00 | 0.05 | 0.05 | 94 | 1007.3 |
| 20260506214545 | 12 | 0.0 | 3.2 | 0.00 | 0.05 | 0.05 | 93 | 1007.2 | |
| 20260506213541 | 12 | 113 | 0.0 | 3.2 | 0.00 | 0.05 | 0.05 | 93 | 1007.1 |
| 20260506212538 | 12 | 0.0 | 3.2 | 0.03 | 0.05 | 0.05 | 92 | 1007.1 | |
| 20260506211535 | 12 | 90 | 0.0 | 3.2 | 0.03 | 0.05 | 0.05 | 91 | 1007.0 |
| 20260506210531 | 12 | 0.0 | 0.0 | 0.03 | 0.05 | 0.05 | 92 | 1006.9 | |
| 20260506205528 | 12 | 0.0 | 3.2 | 0.03 | 0.05 | 0.05 | 91 | 1006.8 | |
| 20260506204524 | 13 | 0.0 | 0.0 | 0.03 | 0.05 | 0.05 | 90 | 1006.8 | |
| 20260506203521 | 13 | 0.0 | 0.0 | 0.03 | 0.05 | 0.05 | 88 | 1006.7 | |
| 20260506202517 | 14 | 0.0 | 0.0 | 0.00 | 0.03 | 0.03 | 82 | 1006.7 | |
| 20260506201613 | 14 | 0.0 | 3.2 | 0.00 | 0.05 | 0.03 | 81 | 1006.6 | |
| 20260506200609 | 14 | 90 | 0.0 | 3.2 | 0.00 | 0.05 | 0.03 | 80 | 1006.6 |
| 20260506195606 | 14 | 90 | 0.0 | 3.2 | 0.00 | 0.10 | 0.03 | 80 | 1006.5 |
| 20260506194603 | 14 | 0.0 | 3.2 | 0.00 | 0.10 | 0.03 | 79 | 1006.5 | |
| 20260506193559 | 15 | 0.0 | 3.2 | 0.00 | 0.10 | 0.03 | 78 | 1006.3 | |
| 20260506192556 | 15 | 90 | 0.0 | 3.2 | 0.00 | 0.10 | 0.03 | 77 | 1006.3 |
| 20260506191552 | 15 | 0.0 | 0.0 | 0.00 | 0.10 | 0.03 | 78 | 1006.1 | |
| 20260506190549 | 15 | 0.0 | 3.2 | 0.00 | 0.10 | 0.03 | 78 | 1006.0 | |
| 20260506185545 | 14 | 0.0 | 3.2 | 0.00 | 0.10 | 0.03 | 81 | 1005.8 | |
| 20260506184541 | 14 | 0.0 | 3.2 | 0.00 | 0.10 | 0.03 | 83 | 1005.6 | |
| 20260506183538 | 14 | 0.0 | 0.0 | 0.00 | 0.13 | 0.03 | 82 | 1005.4 | |
| 20260506182534 | 15 | 0.0 | 0.0 | 0.00 | 0.18 | 0.03 | 81 | 1005.3 | |
| 20260506181531 | 15 | 0.0 | 0.0 | 0.00 | 0.30 | 0.03 | 82 | 1005.3 | |
| 20260506180527 | 15 | 0.0 | 0.0 | 0.00 | 0.36 | 0.03 | 82 | 1005.3 | |
| 20260506175523 | 16 | 0.0 | 0.0 | 0.00 | 0.36 | 0.03 | 78 | 1005.2 | |
| 20260506174519 | 16 | 0.0 | 0.0 | 0.00 | 0.38 | 0.03 | 73 | 1005.1 | |
| 20260506172612 | 17 | 0.0 | 0.0 | 0.00 | 0.69 | 0.03 | 71 | 1004.8 | |
| 20260506171609 | 17 | 0.0 | 0.0 | 0.00 | 1.12 | 0.03 | 68 | 1004.7 | |
| 20260506170605 | 18 | 0.0 | 0.0 | 0.00 | 1.30 | 0.03 | 65 | 1004.7 | |
| 20260506165602 | 18 | 0.0 | 0.0 | 0.00 | 1.60 | 0.03 | 64 | 1004.6 | |
| 20260506164558 | 18 | 0.0 | 0.0 | 0.00 | 1.68 | 0.03 | 65 | 1004.7 | |
| 20260506163554 | 18 | 0.0 | 3.2 | 0.00 | 1.68 | 0.03 | 64 | 1004.7 | |
| 20260506162551 | 18 | 0.0 | 3.2 | 0.00 | 1.68 | 0.03 | 65 | 1004.8 | |
| 20260506161547 | 18 | 0.0 | 0.0 | 0.00 | 1.68 | 0.03 | 64 | 1004.9 | |
| 20260506160544 | 18 | 0.0 | 3.2 | 0.00 | 1.68 | 0.03 | 61 | 1004.9 | |
| 20260506155540 | 18 | 0.0 | 3.2 | 0.00 | 1.68 | 0.03 | 62 | 1005.0 | |
| 20260506154537 | 19 | 0.0 | 3.2 | 0.00 | 1.68 | 0.03 | 60 | 1005.1 | |
| 20260506153533 | 19 | 0.0 | 0.0 | 0.00 | 1.68 | 0.03 | 60 | 1005.0 | |
| 20260506152530 | 19 | 0.0 | 0.0 | 0.00 | 1.68 | 0.03 | 58 | 1004.9 | |
| 20260506151527 | 19 | 0.0 | 3.2 | 0.00 | 1.68 | 0.03 | 59 | 1004.9 | |
| 20260506150523 | 20 | 113 | 0.0 | 3.2 | 0.00 | 1.68 | 0.03 | 56 | 1004.9 |
| 20260506145519 | 19 | 113 | 0.0 | 3.2 | 0.00 | 1.68 | 0.03 | 59 | 1005.0 |
| 20260506144515 | 19 | 0.0 | 0.0 | 0.00 | 1.68 | 0.03 | 58 | 1004.9 | |
| 20260506143611 | 20 | 113 | 0.0 | 3.2 | 0.00 | 1.68 | 0.03 | 58 | 1005.1 |
| 20260506142608 | 20 | 113 | 0.0 | 3.2 | 0.00 | 1.68 | 0.03 | 57 | 1005.1 |
| 20260506141604 | 20 | 113 | 0.0 | 3.2 | 0.00 | 1.68 | 0.03 | 59 | 1005.1 |
| 20260506140601 | 20 | 113 | 1.6 | 6.4 | 0.00 | 1.68 | 0.03 | 54 | 1005.2 |
| 20260506135557 | 20 | 113 | 0.0 | 3.2 | 0.00 | 1.68 | 0.03 | 55 | 1005.2 |
| 20260506134553 | 20 | 113 | 0.0 | 3.2 | 0.00 | 1.68 | 0.03 | 54 | 1005.1 |
| 20260506133550 | 21 | 0.0 | 3.2 | 0.00 | 1.68 | 0.03 | 56 | 1005.2 | |
| 20260506132546 | 21 | 0.0 | 3.2 | 0.00 | 1.68 | 0.03 | 55 | 1005.3 | |
| 20260506131543 | 20 | 0.0 | 3.2 | 0.00 | 1.68 | 0.03 | 54 | 1005.3 | |
| 20260506130539 | 20 | 113 | 0.0 | 3.2 | 0.00 | 1.68 | 0.03 | 55 | 1005.4 |
| 20260506125536 | 20 | 113 | 0.0 | 3.2 | 0.00 | 1.68 | 0.03 | 55 | 1005.5 |
| 20260506124532 | 21 | 158 | 0.0 | 3.2 | 0.00 | 1.68 | 0.03 | 54 | 1005.5 |
| 20260506123528 | 21 | 113 | 1.6 | 6.4 | 0.00 | 1.68 | 0.03 | 54 | 1005.5 |
| 20260506122525 | 21 | 113 | 0.0 | 3.2 | 0.00 | 1.68 | 0.03 | 53 | 1005.5 |
| 20260506121521 | 21 | 113 | 0.0 | 3.2 | 0.00 | 1.68 | 0.03 | 55 | 1005.6 |
| 20260506120517 | 21 | 180 | 1.6 | 3.2 | 0.00 | 1.68 | 0.03 | 53 | 1005.6 |
| 20260506115614 | 21 | 0.0 | 3.2 | 0.00 | 1.68 | 0.03 | 57 | 1005.7 | |
| 20260506114610 | 20 | 101 | 0.0 | 3.2 | 0.00 | 1.68 | 0.03 | 59 | 1005.7 |
| 20260506113606 | 20 | 113 | 1.6 | 6.4 | 0.00 | 1.68 | 0.03 | 59 | 1005.8 |
| 20260506112603 | 19 | 113 | 0.0 | 3.2 | 0.00 | 1.68 | 0.03 | 60 | 1005.8 |
| 20260506111559 | 20 | 0.0 | 3.2 | 0.00 | 1.68 | 0.03 | 64 | 1005.9 | |
| 20260506110556 | 18 | 113 | 0.0 | 6.4 | 0.00 | 1.68 | 0.03 | 64 | 1005.9 |
| 20260506105553 | 19 | 108 | 1.6 | 3.2 | 0.00 | 1.68 | 0.03 | 62 | 1005.8 |
| 20260506104549 | 19 | 113 | 0.0 | 3.2 | 0.00 | 1.68 | 0.03 | 66 | 1005.9 |
| 20260506103545 | 19 | 129 | 1.6 | 6.4 | 0.00 | 1.68 | 0.03 | 67 | 1005.8 |
| 20260506102542 | 17 | 0.0 | 3.2 | 0.00 | 1.68 | 0.03 | 72 | 1006.0 | |
| 20260506101539 | 17 | 113 | 0.0 | 3.2 | 0.00 | 1.68 | 0.03 | 75 | 1006.0 |
| 20260506100537 | 17 | 113 | 0.0 | 3.2 | 0.00 | 1.68 | 0.03 | 74 | 1006.1 |